Time;durP1;ratioP1;P1;durP2;ratioP2;P2;SDS_P1;SDS_P2;PMS_P1;PMS_P2;Temp;Humidity;BMP_temperature;BMP_pressure;BME280_temperature;BME280_humidity;BME280_pressure;Samples;Min_cycle;Max_cycle;Signal;HPM_P1;HPM_P2
2021/09/18 00:01:34;;;;;;;7.10;6.50;;;14.80;99.90;;;;;;5091963;28;20181;-55
2021/09/18 00:04:00;;;;;;;7.30;6.70;;;14.80;99.90;;;;;;5084106;28;20185;-55
2021/09/18 00:06:26;;;;;;;6.80;6.20;;;14.80;99.90;;;;;;5071144;28;20335;-52
2021/09/18 00:08:51;;;;;;;7.10;6.50;;;14.80;99.90;;;;;;5071304;28;20276;-53
2021/09/18 00:11:17;;;;;;;7.33;6.63;;;14.80;99.90;;;;;;5070545;28;20177;-57
2021/09/18 00:13:42;;;;;;;7.20;6.60;;;14.80;99.90;;;;;;5071212;28;20200;-52
2021/09/18 00:16:08;;;;;;;7.50;6.70;;;14.80;99.90;;;;;;5082762;28;20192;-52
2021/09/18 00:18:33;;;;;;;7.33;6.63;;;14.80;99.90;;;;;;5088269;28;20189;-54
2021/09/18 00:21:02;;;;;;;7.23;6.63;;;14.70;99.90;;;;;;5065733;28;20217;-52
2021/09/18 00:23:28;;;;;;;6.47;5.87;;;14.80;99.90;;;;;;5069079;28;20601;-52
2021/09/18 00:25:53;;;;;;;6.90;6.30;;;14.80;99.90;;;;;;5070849;28;21004;-54
2021/09/18 00:28:19;;;;;;;6.30;5.60;;;14.80;99.90;;;;;;5075774;28;20480;-53
2021/09/18 00:30:45;;;;;;;6.77;6.20;;;14.80;99.90;;;;;;5091476;28;20215;-53
2021/09/18 00:33:10;;;;;;;6.67;6.13;;;14.80;99.90;;;;;;5067495;28;20181;-53
2021/09/18 00:35:36;;;;;;;6.90;6.20;;;14.80;99.90;;;;;;5070879;28;20192;-53
2021/09/18 00:38:01;;;;;;;6.50;6.00;;;14.80;99.90;;;;;;5068020;28;20651;-57
2021/09/18 00:40:27;;;;;;;5.90;5.40;;;14.70;99.90;;;;;;5072528;28;20652;-54
2021/09/18 00:42:52;;;;;;;6.07;5.57;;;14.80;99.90;;;;;;5067752;28;20217;-53
2021/09/18 00:45:18;;;;;;;6.17;5.67;;;14.80;99.90;;;;;;5072243;28;20181;-55
2021/09/18 00:47:44;;;;;;;5.70;5.30;;;14.80;99.90;;;;;;5072132;28;20201;-53
2021/09/18 00:50:09;;;;;;;5.83;5.33;;;14.80;99.90;;;;;;5071558;28;20181;-53
2021/09/18 00:52:35;;;;;;;6.33;5.83;;;14.80;99.90;;;;;;5071174;28;20174;-55
2021/09/18 00:55:02;;;;;;;5.93;5.53;;;14.80;99.90;;;;;;5070650;28;20529;-53
2021/09/18 00:57:29;;;;;;;5.43;4.93;;;14.80;99.90;;;;;;5072064;28;20324;-49
2021/09/18 01:00:01;;;;;;;5.40;5.00;;;14.80;99.90;;;;;;5071492;28;20518;-51
2021/09/18 01:02:27;;;;;;;4.90;4.50;;;14.80;99.90;;;;;;5071498;28;20392;-51
2021/09/18 01:04:52;;;;;;;5.43;5.03;;;14.80;99.90;;;;;;5055358;28;20444;-54
2021/09/18 01:07:18;;;;;;;5.53;4.43;;;14.80;99.90;;;;;;5066980;28;20217;-52
2021/09/18 01:09:44;;;;;;;5.73;4.90;;;14.80;99.90;;;;;;5063262;28;20190;-54
2021/09/18 01:12:10;;;;;;;5.10;4.70;;;14.80;99.90;;;;;;5068504;28;20182;-52
2021/09/18 01:14:35;;;;;;;4.87;4.47;;;14.80;99.90;;;;;;5066545;28;20930;-54
2021/09/18 01:17:02;;;;;;;4.67;4.27;;;14.80;99.90;;;;;;5076428;28;20245;-52
2021/09/18 01:19:27;;;;;;;5.93;4.73;;;14.80;99.90;;;;;;5082588;28;20182;-55
2021/09/18 01:21:55;;;;;;;4.43;4.13;;;14.70;99.90;;;;;;5089280;28;20444;-50
2021/09/18 01:24:20;;;;;;;4.50;4.10;;;14.70;99.90;;;;;;5083894;28;20723;-58
2021/09/18 01:26:46;;;;;;;3.87;3.57;;;14.70;99.90;;;;;;5054133;28;20452;-54
2021/09/18 01:29:11;;;;;;;4.27;3.87;;;14.70;99.90;;;;;;5054584;28;20182;-55
2021/09/18 01:31:44;;;;;;;4.73;4.33;;;14.70;99.90;;;;;;5071380;28;20182;-53
2021/09/18 01:34:10;;;;;;;4.43;4.00;;;14.70;99.90;;;;;;5070603;28;20177;-53
2021/09/18 01:36:37;;;;;;;4.40;4.10;;;14.70;99.90;;;;;;5069777;28;20493;-51
2021/09/18 01:39:09;;;;;;;4.80;4.40;;;14.70;99.90;;;;;;5070677;28;20473;-54
2021/09/18 01:41:34;;;;;;;4.83;4.40;;;14.80;99.90;;;;;;5063232;28;21238;-56
2021/09/18 01:44:00;;;;;;;5.10;4.70;;;14.70;99.90;;;;;;5063350;28;20532;-54
2021/09/18 01:46:26;;;;;;;5.00;4.60;;;14.70;99.90;;;;;;5068779;28;20208;-54
2021/09/18 01:48:52;;;;;;;4.80;4.40;;;14.70;99.90;;;;;;5068753;28;20335;-54
2021/09/18 01:51:18;;;;;;;5.10;4.63;;;14.80;99.90;;;;;;5067340;28;20975;-54
2021/09/18 01:53:44;;;;;;;5.80;5.10;;;14.70;99.90;;;;;;5068611;28;20432;-52
2021/09/18 01:56:10;;;;;;;4.50;4.10;;;14.70;99.90;;;;;;5069588;28;20165;-54
2021/09/18 01:58:36;;;;;;;4.70;4.30;;;14.70;99.90;;;;;;5068547;28;20508;-56
2021/09/18 02:01:03;;;;;;;5.97;4.80;;;14.70;99.90;;;;;;5069415;28;20623;-54
2021/09/18 02:03:30;;;;;;;5.43;5.03;;;14.70;99.90;;;;;;5068532;28;20186;-56
2021/09/18 02:05:56;;;;;;;5.07;4.60;;;14.70;99.90;;;;;;5068844;28;20415;-56
2021/09/18 02:08:22;;;;;;;4.70;4.40;;;14.70;99.90;;;;;;5066375;28;20444;-56
2021/09/18 02:10:48;;;;;;;5.60;5.10;;;14.70;99.90;;;;;;5069472;28;20567;-55
2021/09/18 02:13:15;;;;;;;5.30;4.90;;;14.80;99.90;;;;;;5061997;28;20503;-54
2021/09/18 02:15:42;;;;;;;5.20;4.80;;;14.80;99.90;;;;;;5060126;28;20498;-54
2021/09/18 02:18:08;;;;;;;5.30;4.80;;;14.70;99.90;;;;;;5068767;28;20438;-58
2021/09/18 02:20:35;;;;;;;5.33;4.83;;;14.70;99.90;;;;;;5068534;28;20431;-53
2021/09/18 02:23:01;;;;;;;4.80;4.40;;;14.60;99.90;;;;;;5069334;28;20446;-54
2021/09/18 02:25:28;;;;;;;6.07;5.57;;;14.60;99.90;;;;;;5050514;28;20938;-54
2021/09/18 02:27:54;;;;;;;5.00;4.60;;;14.70;99.90;;;;;;5048900;28;20555;-56
2021/09/18 02:30:21;;;;;;;4.97;4.57;;;14.70;99.90;;;;;;5062707;28;20531;-52
2021/09/18 02:32:47;;;;;;;4.87;4.47;;;14.70;99.90;;;;;;5068964;28;20423;-52
2021/09/18 02:35:15;;;;;;;5.03;4.53;;;14.70;99.90;;;;;;5066886;28;20469;-51
2021/09/18 02:37:41;;;;;;;5.50;5.00;;;14.70;99.90;;;;;;5068962;28;20166;-49
2021/09/18 02:40:09;;;;;;;5.40;4.90;;;14.70;99.90;;;;;;5067552;28;20497;-51
2021/09/18 02:42:37;;;;;;;5.10;4.60;;;14.70;99.90;;;;;;5064516;28;20453;-53
2021/09/18 02:45:04;;;;;;;5.40;5.00;;;14.70;99.90;;;;;;5052616;28;20869;-54
2021/09/18 02:47:30;;;;;;;5.00;4.60;;;14.60;99.90;;;;;;5068902;28;20840;-51
2021/09/18 02:49:55;;;;;;;5.20;4.80;;;14.70;99.90;;;;;;5069000;28;20424;-52
2021/09/18 02:52:21;;;;;;;4.80;4.50;;;14.60;99.90;;;;;;5068000;28;20186;-52
2021/09/18 02:54:47;;;;;;;5.57;5.07;;;14.70;99.90;;;;;;5068920;28;20200;-55
2021/09/18 02:57:13;;;;;;;5.20;4.77;;;14.70;99.90;;;;;;5067394;28;20212;-55
2021/09/18 02:59:38;;;;;;;4.70;4.40;;;14.60;99.90;;;;;;5069173;28;21250;-56
2021/09/18 03:02:04;;;;;;;4.60;4.30;;;14.60;99.90;;;;;;5068289;28;20570;-54
2021/09/18 03:04:31;;;;;;;4.37;3.97;;;14.60;99.90;;;;;;5068754;28;20174;-51
2021/09/18 03:06:56;;;;;;;4.93;4.53;;;14.60;99.90;;;;;;5067668;28;20205;-54
2021/09/18 03:09:22;;;;;;;5.40;4.90;;;14.60;99.90;;;;;;5068608;28;20396;-53
2021/09/18 03:11:47;;;;;;;5.17;4.77;;;14.60;99.90;;;;;;5066103;28;20193;-55
2021/09/18 03:14:13;;;;;;;4.40;4.10;;;14.60;99.90;;;;;;5061111;28;20264;-53
2021/09/18 03:16:38;;;;;;;4.80;4.40;;;14.60;99.90;;;;;;5066046;28;20201;-53
2021/09/18 03:19:04;;;;;;;5.33;4.27;;;14.60;99.90;;;;;;5087589;28;20192;-53
2021/09/18 03:21:29;;;;;;;4.33;4.03;;;14.60;99.90;;;;;;5083030;28;20181;-54
2021/09/18 03:23:55;;;;;;;5.17;4.57;;;14.60;99.90;;;;;;5087197;28;20192;-56
2021/09/18 03:26:21;;;;;;;4.80;4.00;;;14.60;99.90;;;;;;5084387;28;20220;-54
2021/09/18 03:28:46;;;;;;;3.97;3.67;;;14.60;99.90;;;;;;5083661;28;20188;-51
2021/09/18 03:31:12;;;;;;;4.10;3.80;;;14.60;99.90;;;;;;5084934;28;20174;-54
2021/09/18 03:33:39;;;;;;;5.63;3.97;;;14.70;99.90;;;;;;5080135;28;20326;-54
2021/09/18 03:36:05;;;;;;;3.73;3.43;;;14.60;99.90;;;;;;5089526;28;20173;-53
2021/09/18 03:38:31;;;;;;;4.27;3.87;;;14.60;99.90;;;;;;5079178;28;20443;-54
2021/09/18 03:40:56;;;;;;;3.53;3.23;;;14.60;99.90;;;;;;5092070;28;20805;-51
2021/09/18 03:43:22;;;;;;;4.13;3.80;;;14.60;99.90;;;;;;5069922;28;20590;-52
2021/09/18 03:45:48;;;;;;;3.10;2.87;;;14.60;99.90;;;;;;5084313;28;20192;-55
2021/09/18 03:48:13;;;;;;;3.57;3.27;;;14.50;99.90;;;;;;5076008;28;20832;-53
2021/09/18 03:50:39;;;;;;;3.70;3.10;;;14.60;99.90;;;;;;5089234;28;20181;-52
2021/09/18 03:53:04;;;;;;;3.20;2.63;;;14.50;99.90;;;;;;5076658;28;20585;-54
2021/09/18 03:55:30;;;;;;;3.37;3.10;;;14.50;99.90;;;;;;5052406;28;20193;-52
2021/09/18 03:57:55;;;;;;;3.20;2.60;;;14.60;99.90;;;;;;5061284;28;20185;-50
2021/09/18 04:00:21;;;;;;;2.60;2.40;;;14.50;99.90;;;;;;5071655;28;20624;-55
2021/09/18 04:02:46;;;;;;;2.60;2.40;;;14.50;99.90;;;;;;5070131;28;20231;-55
2021/09/18 04:05:12;;;;;;;2.60;2.40;;;14.50;99.90;;;;;;5071491;28;20170;-54
2021/09/18 04:07:37;;;;;;;2.50;2.40;;;14.50;99.90;;;;;;5070592;28;20205;-56
2021/09/18 04:10:03;;;;;;;2.50;2.30;;;14.40;99.90;;;;;;5071518;28;20239;-55
2021/09/18 04:12:29;;;;;;;2.70;2.50;;;14.40;99.90;;;;;;5065104;28;20514;-53
2021/09/18 04:14:54;;;;;;;2.20;2.10;;;14.40;99.90;;;;;;5075116;28;20964;-52
2021/09/18 04:17:20;;;;;;;3.97;2.50;;;14.40;99.90;;;;;;5076663;28;20196;-55
2021/09/18 04:19:45;;;;;;;2.50;2.30;;;14.40;99.90;;;;;;5069459;28;20629;-51
2021/09/18 04:22:11;;;;;;;2.60;2.40;;;14.40;99.90;;;;;;5077455;28;20276;-55
2021/09/18 04:24:37;;;;;;;2.23;2.10;;;14.40;99.90;;;;;;5077641;28;20193;-54
2021/09/18 04:27:03;;;;;;;2.70;2.50;;;14.30;99.90;;;;;;5069153;28;20209;-54
2021/09/18 04:29:28;;;;;;;2.30;2.10;;;14.30;99.90;;;;;;5069911;28;20181;-53
2021/09/18 04:31:54;;;;;;;6.20;2.30;;;14.30;99.90;;;;;;5071131;28;20182;-53
2021/09/18 04:34:19;;;;;;;2.40;2.20;;;14.30;99.90;;;;;;5090239;28;20545;-52
2021/09/18 04:36:45;;;;;;;2.40;2.20;;;14.30;99.90;;;;;;5074687;28;20196;-55
2021/09/18 04:39:13;;;;;;;2.40;2.20;;;14.30;99.90;;;;;;5070857;28;20172;-54
2021/09/18 04:41:38;;;;;;;2.17;2.07;;;14.30;99.90;;;;;;5069522;28;20199;-56
2021/09/18 04:44:04;;;;;;;2.70;2.50;;;14.20;99.90;;;;;;5053764;28;20464;-53
2021/09/18 04:46:30;;;;;;;2.90;2.30;;;14.20;99.90;;;;;;5056347;28;20205;-55
2021/09/18 04:48:55;;;;;;;2.13;2.03;;;14.20;99.90;;;;;;5070767;28;20260;-54
2021/09/18 04:51:21;;;;;;;2.63;2.43;;;14.20;99.90;;;;;;5070092;28;20189;-56
2021/09/18 04:53:46;;;;;;;2.40;2.20;;;14.30;99.90;;;;;;5069391;28;20170;-47
2021/09/18 04:56:12;;;;;;;2.33;2.20;;;14.30;99.90;;;;;;5069403;28;20174;-55
2021/09/18 04:58:37;;;;;;;3.90;2.13;;;14.30;99.90;;;;;;5070403;28;20173;-54
2021/09/18 05:01:03;;;;;;;3.03;2.60;;;14.30;99.90;;;;;;5069751;28;20185;-50
2021/09/18 05:03:28;;;;;;;2.80;2.60;;;14.30;99.90;;;;;;5070548;28;20216;-55
2021/09/18 05:05:54;;;;;;;2.57;2.40;;;14.30;99.90;;;;;;5068760;28;20215;-53
2021/09/18 05:08:20;;;;;;;3.00;2.80;;;14.30;99.90;;;;;;5070536;28;20644;-55
2021/09/18 05:10:45;;;;;;;2.93;2.73;;;14.30;99.90;;;;;;5068799;28;20158;-58
2021/09/18 05:13:11;;;;;;;2.93;2.20;;;14.30;99.90;;;;;;5059134;28;20611;-53
2021/09/18 05:15:36;;;;;;;2.50;2.30;;;14.30;99.90;;;;;;5078681;28;20193;-53
2021/09/18 05:18:02;;;;;;;2.50;2.30;;;14.20;99.90;;;;;;5082581;28;20185;-55
2021/09/18 05:20:28;;;;;;;2.70;2.50;;;14.20;99.90;;;;;;5088574;28;20192;-54
2021/09/18 05:22:53;;;;;;;2.40;2.23;;;14.30;99.90;;;;;;5087073;28;20224;-50
2021/09/18 05:25:19;;;;;;;3.60;2.40;;;14.30;99.90;;;;;;5054472;28;20178;-56
2021/09/18 05:27:44;;;;;;;2.33;2.13;;;14.30;99.90;;;;;;5059330;28;20244;-56
2021/09/18 05:30:11;;;;;;;2.17;2.07;;;14.20;99.90;;;;;;5069930;28;20237;-55
2021/09/18 05:32:36;;;;;;;2.23;2.10;;;14.20;99.90;;;;;;5068690;28;20192;-53
2021/09/18 05:35:03;;;;;;;2.27;2.00;;;14.20;99.90;;;;;;5068332;28;20412;-57
2021/09/18 05:37:29;;;;;;;2.13;1.93;;;14.20;99.90;;;;;;5066037;28;20230;-53
2021/09/18 05:39:54;;;;;;;2.60;2.00;;;14.30;99.90;;;;;;5049899;28;20755;-55
2021/09/18 05:42:20;;;;;;;2.30;2.10;;;14.30;99.90;;;;;;5050599;28;20258;-55
2021/09/18 05:44:45;;;;;;;2.50;2.30;;;14.30;99.90;;;;;;5069726;28;20247;-52
2021/09/18 05:47:11;;;;;;;2.67;2.30;;;14.30;99.90;;;;;;5069302;28;20205;-55
2021/09/18 05:49:36;;;;;;;3.13;2.87;;;14.40;99.90;;;;;;5068778;28;20178;-55
2021/09/18 05:52:02;;;;;;;2.80;2.60;;;14.40;99.90;;;;;;5068830;28;20169;-53
2021/09/18 05:54:28;;;;;;;2.53;2.33;;;14.30;99.90;;;;;;5068491;28;20177;-52
2021/09/18 05:56:54;;;;;;;2.50;2.30;;;14.30;99.90;;;;;;5069902;28;20197;-51
2021/09/18 05:59:20;;;;;;;2.73;2.20;;;14.30;99.90;;;;;;5068513;28;20196;-52
2021/09/18 06:01:45;;;;;;;2.67;2.40;;;14.40;99.90;;;;;;5069612;28;20423;-57
2021/09/18 06:04:11;;;;;;;3.00;2.80;;;14.40;99.90;;;;;;5068672;28;20184;-49
2021/09/18 06:06:37;;;;;;;2.50;2.30;;;14.40;99.90;;;;;;5069258;28;20232;-52
2021/09/18 06:09:03;;;;;;;3.07;2.87;;;14.40;99.90;;;;;;5067388;28;20201;-53
2021/09/18 06:11:28;;;;;;;2.80;2.60;;;14.50;99.90;;;;;;5069130;28;20182;-50
2021/09/18 06:13:54;;;;;;;2.80;2.60;;;14.50;99.90;;;;;;5064135;28;20426;-51
2021/09/18 06:16:22;;;;;;;2.50;2.30;;;14.50;99.90;;;;;;5067515;28;20234;-57
2021/09/18 06:18:48;;;;;;;2.83;2.50;;;14.50;99.90;;;;;;5067653;28;20186;-51
2021/09/18 06:21:14;;;;;;;2.50;2.30;;;14.50;99.90;;;;;;5069136;28;20415;-55
2021/09/18 06:23:40;;;;;;;2.60;2.40;;;14.50;99.90;;;;;;5068512;28;20950;-53
2021/09/18 06:26:09;;;;;;;3.37;2.47;;;14.50;99.90;;;;;;5069373;28;20685;-54
2021/09/18 06:28:34;;;;;;;3.00;2.80;;;14.60;99.90;;;;;;5067976;28;20491;-52
2021/09/18 06:31:01;;;;;;;2.43;2.23;;;14.60;99.90;;;;;;5066836;28;20423;-56
2021/09/18 06:33:26;;;;;;;2.90;2.60;;;14.60;99.90;;;;;;5068582;28;20294;-55
2021/09/18 06:35:52;;;;;;;3.73;2.90;;;14.60;99.90;;;;;;5068899;28;20523;-52
2021/09/18 06:38:21;;;;;;;4.13;3.63;;;14.60;99.90;;;;;;5065778;28;20190;-51
2021/09/18 06:40:51;;;;;;;2.73;2.53;;;14.70;99.90;;;;;;5069196;28;20381;-54
2021/09/18 06:43:17;;;;;;;3.40;3.10;;;14.70;99.90;;;;;;5068134;28;21087;-54
2021/09/18 06:45:43;;;;;;;2.57;2.37;;;14.80;99.90;;;;;;5068913;28;20415;-51
2021/09/18 06:48:10;;;;;;;2.80;2.60;;;14.80;99.90;;;;;;5068245;28;20455;-54
2021/09/18 06:50:37;;;;;;;2.70;2.50;;;14.90;99.90;;;;;;5068998;28;20165;-55
2021/09/18 06:53:04;;;;;;;3.20;2.83;;;15.00;99.90;;;;;;5069285;28;21297;-50
2021/09/18 06:55:29;;;;;;;3.10;2.80;;;15.00;99.90;;;;;;5072590;28;20437;-51
2021/09/18 06:57:56;;;;;;;3.63;2.80;;;15.00;99.90;;;;;;5071307;28;20916;-56
2021/09/18 07:00:22;;;;;;;3.00;2.80;;;15.00;99.90;;;;;;5072669;28;20711;-54
2021/09/18 07:02:47;;;;;;;2.70;2.50;;;15.10;99.90;;;;;;5072759;28;20408;-51
2021/09/18 07:05:13;;;;;;;2.77;2.50;;;15.10;99.90;;;;;;5070595;28;20893;-51
2021/09/18 07:07:39;;;;;;;3.30;3.00;;;15.00;99.90;;;;;;5072710;28;20201;-54
2021/09/18 07:10:05;;;;;;;2.60;2.40;;;15.10;99.90;;;;;;5071996;28;20975;-50
2021/09/18 07:12:31;;;;;;;2.73;2.53;;;15.10;99.90;;;;;;5072282;28;20184;-51
2021/09/18 07:14:56;;;;;;;3.60;2.80;;;15.10;99.90;;;;;;5063256;28;20435;-53
2021/09/18 07:17:22;;;;;;;3.17;2.87;;;15.20;99.90;;;;;;5072336;28;20209;-56
2021/09/18 07:19:47;;;;;;;3.30;3.10;;;15.30;99.90;;;;;;5071631;28;20180;-51
2021/09/18 07:22:13;;;;;;;2.90;2.70;;;15.30;99.90;;;;;;5071549;28;20632;-55
2021/09/18 07:24:39;;;;;;;2.90;2.60;;;15.30;99.90;;;;;;5071149;28;20178;-54
2021/09/18 07:27:05;;;;;;;2.80;2.60;;;15.30;99.90;;;;;;5071812;28;20197;-56
2021/09/18 07:29:30;;;;;;;2.70;2.50;;;15.30;99.90;;;;;;5070942;28;20177;-52
2021/09/18 07:31:56;;;;;;;4.10;2.73;;;15.30;99.90;;;;;;5072077;28;20482;-49
2021/09/18 07:34:21;;;;;;;2.70;2.50;;;15.40;99.90;;;;;;5071190;28;20182;-54
2021/09/18 07:36:48;;;;;;;2.70;2.50;;;15.20;99.90;;;;;;5072156;28;20267;-56
2021/09/18 07:39:14;;;;;;;2.77;2.57;;;15.20;99.90;;;;;;5071771;28;20186;-53
2021/09/18 07:41:41;;;;;;;2.47;2.30;;;15.30;99.90;;;;;;5071884;28;20794;-53
2021/09/18 07:44:07;;;;;;;2.40;2.20;;;15.50;99.90;;;;;;5057707;28;20227;-54
2021/09/18 07:46:32;;;;;;;2.43;2.23;;;15.50;99.90;;;;;;5071755;28;20450;-51
2021/09/18 07:48:58;;;;;;;2.20;2.10;;;15.50;99.90;;;;;;5069905;28;20416;-53
2021/09/18 07:51:25;;;;;;;2.20;1.80;;;15.50;99.90;;;;;;5072172;28;20163;-55
2021/09/18 07:53:50;;;;;;;2.33;2.23;;;15.50;99.90;;;;;;5071311;28;20443;-53
2021/09/18 07:56:16;;;;;;;2.20;2.10;;;15.50;99.90;;;;;;5072003;28;20427;-55
2021/09/18 07:58:42;;;;;;;2.00;1.90;;;15.60;99.90;;;;;;5071882;28;20166;-56
2021/09/18 08:01:07;;;;;;;2.00;1.83;;;15.50;99.90;;;;;;5059127;28;20435;-54
2021/09/18 08:03:33;;;;;;;2.30;2.13;;;15.50;99.90;;;;;;5071486;28;20312;-51
2021/09/18 08:05:58;;;;;;;2.37;2.13;;;15.60;99.90;;;;;;5069981;28;20648;-56
2021/09/18 08:08:24;;;;;;;2.57;2.37;;;15.70;99.90;;;;;;5071574;28;20193;-54
2021/09/18 08:10:49;;;;;;;2.03;1.93;;;15.80;99.90;;;;;;5070486;28;20188;-53
2021/09/18 08:13:15;;;;;;;2.03;1.93;;;15.80;99.90;;;;;;5068943;28;20178;-52
2021/09/18 08:15:41;;;;;;;1.70;1.60;;;15.90;99.90;;;;;;5075867;28;20199;-55
2021/09/18 08:18:06;;;;;;;2.27;2.07;;;15.90;99.90;;;;;;5054409;28;20189;-55
2021/09/18 08:20:32;;;;;;;2.60;2.30;;;16.00;99.90;;;;;;5050857;28;20182;-54
2021/09/18 08:22:58;;;;;;;2.47;2.30;;;16.20;99.90;;;;;;5071373;28;20639;-55
2021/09/18 08:25:23;;;;;;;2.60;2.40;;;16.30;99.90;;;;;;5070989;28;20188;-54
2021/09/18 08:27:49;;;;;;;2.47;2.37;;;16.30;99.90;;;;;;5070035;28;20217;-53
2021/09/18 08:30:14;;;;;;;2.30;2.10;;;16.30;99.90;;;;;;5071163;28;20205;-51
2021/09/18 08:32:41;;;;;;;2.07;1.90;;;16.30;99.90;;;;;;5070039;28;20532;-51
2021/09/18 08:35:07;;;;;;;2.30;2.20;;;16.30;99.90;;;;;;5071088;28;20170;-58
2021/09/18 08:37:33;;;;;;;2.27;2.07;;;16.40;99.90;;;;;;5070223;28;20456;-53
2021/09/18 08:39:58;;;;;;;3.10;2.40;;;16.30;99.90;;;;;;5071158;28;20941;-53
2021/09/18 08:42:24;;;;;;;3.30;1.73;;;16.30;99.90;;;;;;5069914;28;20658;-54
2021/09/18 08:44:50;;;;;;;2.00;1.90;;;16.40;99.90;;;;;;5070761;28;20186;-53
2021/09/18 08:47:16;;;;;;;2.40;2.20;;;16.40;99.90;;;;;;5069552;28;20468;-51
2021/09/18 08:49:41;;;;;;;2.60;2.40;;;16.50;99.90;;;;;;5070696;28;20170;-54
2021/09/18 08:52:07;;;;;;;1.97;1.87;;;16.70;99.90;;;;;;5069968;28;20420;-55
2021/09/18 08:54:38;;;;;;;2.20;2.10;;;16.60;99.90;;;;;;5070678;28;20536;-52
2021/09/18 08:57:03;;;;;;;2.17;2.07;;;16.60;99.90;;;;;;5069930;28;20174;-56
2021/09/18 08:59:29;;;;;;;2.20;2.10;;;16.60;99.90;;;;;;5070499;28;20888;-52
2021/09/18 09:02:11;;;;;;;3.47;2.47;;;16.60;99.90;;;;;;5069137;28;20576;-52
2021/09/18 09:04:37;;;;;;;1.77;1.67;;;16.60;99.90;;;;;;5070382;28;20170;-52
2021/09/18 09:07:03;;;;;;;2.43;2.23;;;16.60;99.90;;;;;;5062893;28;20469;-55
2021/09/18 09:09:54;;;;;;;2.23;2.13;;;16.60;99.90;;;;;;5050426;28;20166;-52
2021/09/18 09:12:32;;;;;;;2.20;2.00;;;16.50;99.90;;;;;;5056497;28;20596;-56
2021/09/18 09:15:00;;;;;;;2.27;2.10;;;16.60;99.90;;;;;;5069369;28;20498;-54
2021/09/18 09:17:28;;;;;;;3.17;2.20;;;16.50;99.90;;;;;;5067120;28;21059;-50
2021/09/18 09:19:54;;;;;;;1.93;1.83;;;16.60;99.90;;;;;;5087018;28;20419;-53
2021/09/18 09:22:40;;;;;;;2.30;2.20;;;16.60;99.90;;;;;;5083839;28;20634;-54
2021/09/18 09:25:31;;;;;;;2.23;2.03;;;16.70;99.90;;;;;;5056889;28;21000;-55
2021/09/18 09:27:59;;;;;;;2.17;2.07;;;16.60;99.90;;;;;;5073729;28;21060;-55
2021/09/18 09:30:33;;;;;;;2.27;2.07;;;16.50;99.90;;;;;;5087529;28;20419;-51
2021/09/18 09:33:08;;;;;;;2.40;2.30;;;16.50;99.90;;;;;;5076040;28;20431;-53
2021/09/18 09:35:34;;;;;;;2.17;1.97;;;16.40;99.90;;;;;;5088199;28;20908;-52
2021/09/18 09:38:00;;;;;;;2.23;2.13;;;16.20;99.90;;;;;;5079555;28;20450;-51
2021/09/18 09:40:45;;;;;;;2.50;2.30;;;16.00;99.90;;;;;;5088210;28;20415;-53
2021/09/18 09:43:12;;;;;;;2.10;2.00;;;16.00;99.90;;;;;;5076463;28;20279;-51
2021/09/18 09:45:39;;;;;;;2.07;1.93;;;16.00;99.90;;;;;;5086357;28;20423;-52
2021/09/18 09:48:13;;;;;;;2.20;1.93;;;16.00;99.90;;;;;;5077508;28;20871;-53
2021/09/18 09:50:42;;;;;;;3.23;2.30;;;16.00;99.90;;;;;;5082189;28;20421;-54
2021/09/18 09:53:29;;;;;;;2.97;2.20;;;16.00;99.90;;;;;;5081285;28;20486;-53
2021/09/18 09:55:54;;;;;;;5.93;3.60;;;16.00;99.90;;;;;;5086472;28;20416;-53
2021/09/18 09:58:20;;;;;;;4.80;3.03;;;16.00;99.90;;;;;;5080352;28;20430;-54
2021/09/18 10:00:52;;;;;;;8.23;3.77;;;16.00;99.90;;;;;;5082333;28;20185;-55
2021/09/18 10:03:26;;;;;;;2.33;2.23;;;16.20;99.90;;;;;;5081341;28;20189;-55
2021/09/18 10:05:53;;;;;;;3.17;2.40;;;16.20;99.90;;;;;;5081654;28;20438;-50
2021/09/18 10:08:25;;;;;;;3.10;2.73;;;16.20;99.90;;;;;;5054840;28;20478;-52
2021/09/18 10:10:52;;;;;;;2.60;2.20;;;16.20;99.90;;;;;;5069478;28;20412;-54
2021/09/18 10:13:23;;;;;;;3.20;2.20;;;16.20;99.90;;;;;;5067736;28;20518;-52
2021/09/18 10:15:50;;;;;;;2.07;1.97;;;16.20;99.90;;;;;;5062643;28;20417;-55
2021/09/18 10:18:16;;;;;;;2.13;2.00;;;16.20;99.90;;;;;;5073572;28;20415;-55
2021/09/18 10:23:20;;;;;;;2.03;1.93;;;16.40;99.90;;;;;;5086804;28;20476;-55
2021/09/18 10:25:55;;;;;;;2.97;2.67;;;16.40;99.90;;;;;;5081561;28;21259;-51
2021/09/18 10:28:27;;;;;;;2.83;2.53;;;16.50;99.90;;;;;;5051171;28;20567;-53
2021/09/18 10:31:10;;;;;;;2.17;2.07;;;16.50;99.90;;;;;;5065281;28;20962;-55
2021/09/18 10:33:39;;;;;;;3.07;2.43;;;16.40;99.90;;;;;;5079551;28;20784;-52
2021/09/18 10:36:11;;;;;;;2.87;2.30;;;16.30;99.90;;;;;;5088189;28;21185;-54
2021/09/18 10:39:02;;;;;;;2.80;2.33;;;16.30;99.90;;;;;;5091994;28;20421;-54
2021/09/18 10:41:42;;;;;;;2.60;2.30;;;16.30;99.90;;;;;;5072206;28;20434;-50
2021/09/18 10:44:09;;;;;;;2.50;2.30;;;16.30;99.90;;;;;;5081774;28;20475;-52
2021/09/18 10:46:51;;;;;;;2.33;2.23;;;16.30;99.90;;;;;;5089225;28;20460;-55
2021/09/18 10:49:35;;;;;;;2.10;2.00;;;16.30;99.90;;;;;;5087628;28;20424;-53
2021/09/18 10:52:37;;;;;;;2.70;2.50;;;16.30;99.90;;;;;;5090047;28;20423;-55
2021/09/18 10:55:03;;;;;;;2.33;2.13;;;16.40;99.90;;;;;;5079045;28;20880;-57
2021/09/18 10:57:50;;;;;;;2.23;2.13;;;16.40;99.90;;;;;;5089267;28;20544;-49
2021/09/18 11:00:19;;;;;;;3.10;2.43;;;16.40;99.90;;;;;;5079528;28;20284;-54
2021/09/18 11:02:55;;;;;;;2.60;2.40;;;16.30;99.90;;;;;;5090420;28;20518;-56
2021/09/18 11:05:21;;;;;;;2.87;2.57;;;16.30;99.90;;;;;;5083143;28;20431;-53
2021/09/18 11:07:51;;;;;;;3.80;2.90;;;16.30;99.90;;;;;;5082347;28;20473;-52
2021/09/18 11:10:19;;;;;;;3.10;2.70;;;16.30;99.90;;;;;;5084580;28;20189;-57
2021/09/18 11:13:11;;;;;;;2.83;2.63;;;16.30;99.90;;;;;;5083624;28;20433;-52
2021/09/18 11:15:58;;;;;;;3.10;2.90;;;16.20;99.90;;;;;;5063735;28;20450;-52
2021/09/18 11:18:37;;;;;;;3.30;3.10;;;16.10;99.90;;;;;;5070840;28;20518;-55
2021/09/18 11:21:18;;;;;;;3.90;3.60;;;16.10;99.90;;;;;;5088658;28;20771;-55
2021/09/18 11:23:51;;;;;;;3.50;3.07;;;16.10;99.90;;;;;;5085624;28;20431;-52
2021/09/18 11:26:39;;;;;;;3.50;3.20;;;16.00;99.90;;;;;;5089649;28;20415;-55
2021/09/18 11:29:11;;;;;;;3.97;3.53;;;16.00;99.90;;;;;;5058253;28;20434;-52
2021/09/18 11:31:38;;;;;;;3.90;3.33;;;16.00;99.90;;;;;;5070441;28;20420;-54
2021/09/18 11:34:04;;;;;;;3.63;3.40;;;16.00;99.90;;;;;;5071385;28;20444;-55
2021/09/18 11:36:41;;;;;;;6.50;4.00;;;16.00;99.90;;;;;;5071965;28;20838;-52
2021/09/18 11:39:06;;;;;;;4.27;3.87;;;16.00;99.90;;;;;;5070805;28;20462;-53
2021/09/18 11:41:33;;;;;;;4.83;4.53;;;16.00;99.90;;;;;;5072164;28;20436;-51
2021/09/18 11:44:08;;;;;;;5.30;4.77;;;15.90;99.90;;;;;;5066622;28;20233;-56
2021/09/18 11:46:34;;;;;;;5.03;4.67;;;15.90;99.90;;;;;;5072029;28;20455;-53
2021/09/18 11:49:01;;;;;;;5.60;5.10;;;15.80;99.90;;;;;;5071076;28;20432;-55
2021/09/18 11:51:27;;;;;;;5.40;5.00;;;15.80;99.90;;;;;;5071985;28;20180;-53
2021/09/18 11:54:04;;;;;;;5.23;4.83;;;15.60;99.90;;;;;;5071018;28;20412;-54
2021/09/18 11:56:30;;;;;;;4.50;4.20;;;15.60;99.90;;;;;;5071699;28;20180;-54
2021/09/18 11:58:56;;;;;;;5.23;4.90;;;15.60;99.90;;;;;;5061734;28;20435;-53
2021/09/18 12:01:22;;;;;;;4.60;4.30;;;15.70;99.90;;;;;;5051200;28;20466;-53
2021/09/18 12:03:49;;;;;;;4.83;4.53;;;15.70;99.90;;;;;;5050132;28;20629;-52
2021/09/18 12:06:16;;;;;;;4.30;4.00;;;15.90;99.90;;;;;;5051501;28;20409;-52
2021/09/18 12:08:45;;;;;;;4.53;4.20;;;16.00;99.90;;;;;;5056130;28;20452;-50
2021/09/18 12:11:17;;;;;;;4.77;4.37;;;16.00;99.90;;;;;;5071598;28;20393;-49
2021/09/18 12:13:45;;;;;;;5.03;4.63;;;16.20;99.90;;;;;;5069982;28;20446;-52
2021/09/18 12:16:11;;;;;;;4.23;3.93;;;16.20;99.90;;;;;;5070839;28;20447;-52
2021/09/18 12:18:39;;;;;;;4.10;3.80;;;16.30;99.90;;;;;;5067753;28;20444;-51
2021/09/18 12:21:10;;;;;;;4.80;4.40;;;16.20;99.90;;;;;;5068875;28;20428;-54
2021/09/18 12:23:42;;;;;;;4.20;3.90;;;16.30;99.90;;;;;;5069300;28;20431;-54
2021/09/18 12:26:08;;;;;;;4.10;3.80;;;16.20;99.90;;;;;;5070952;28;20423;-54
2021/09/18 12:28:35;;;;;;;4.00;3.60;;;16.20;99.90;;;;;;5069353;28;20455;-53
2021/09/18 12:31:16;;;;;;;5.87;5.47;;;16.30;99.90;;;;;;5068858;28;20186;-54
2021/09/18 12:33:43;;;;;;;4.60;4.30;;;16.30;99.90;;;;;;5068938;28;20451;-52
2021/09/18 12:36:09;;;;;;;4.27;3.97;;;16.40;99.90;;;;;;5069235;28;20879;-53
2021/09/18 12:38:37;;;;;;;4.00;3.70;;;16.40;99.90;;;;;;5068447;28;20418;-51
2021/09/18 12:41:09;;;;;;;3.53;3.27;;;16.50;99.90;;;;;;5069994;28;20527;-51
2021/09/18 12:43:35;;;;;;;3.57;3.37;;;16.60;99.90;;;;;;5058310;28;21065;-56
2021/09/18 12:46:04;;;;;;;3.77;3.47;;;16.60;99.90;;;;;;5068834;28;20553;-54
2021/09/18 12:48:30;;;;;;;4.23;3.80;;;16.60;99.90;;;;;;5070734;28;20456;-52
2021/09/18 12:51:18;;;;;;;3.80;3.50;;;16.60;99.90;;;;;;5068993;28;20987;-49
2021/09/18 12:53:47;;;;;;;4.40;4.10;;;16.70;99.90;;;;;;5070080;28;20173;-55